Ginys del Meteocat

Dades de l'estació automàtica la Quar

?
?
Resum diari 23:00 TU
Dades diàries de l'estació meteorològica
Temperatura mitjana 4.7 °C
Temperatura màxima 11.1 °C 13:39 TU
Temperatura mínima 1.3 °C 7:00 TU
Humitat relativa mitjana 87%
Precipitació acumulada 0.0 mm
Ratxa màxima del vent (10 m) 17.3 km/h - 224º 15:10 TU
Pressió atmosfèrica mitjana 1022.6 hPa

El tram horari està expressat en Temps Universal (TU). Cal sumar una hora en horari d'hivern i dues en horari d'estiu per passar a l'hora oficial.

la Quar

Metadades estació meteorol´gica
Municipi La Quar
Comarca Berguedà
Altitud 873 m
Data alta 13.03.1996
Estat actual Operativa
Dades de període
Període
TU
TM
°C
TX
°C
TN
°C
HRM
%
PPT
mm
VVM (10 m)
km/h
DVM (10 m)
graus
VVX (10 m)
km/h
PM
hPa
00:00 - 00:30 3.4 3.5 3.2 100 0.0 2.9 358 5.8 1025.1
00:30 - 01:00 3.2 3.5 3.1 100 0.0 1.1 330 4.0 1024.8
01:00 - 01:30 2.9 3.1 2.4 100 0.0 2.2 324 5.4 1024.7
01:30 - 02:00 2.4 2.5 2.2 100 0.0 2.9 320 6.5 1024.8
02:00 - 02:30 2.2 2.5 1.7 100 0.0 1.8 283 4.3 1024.5
02:30 - 03:00 2.2 2.5 1.9 100 0.0 4.0 332 6.5 1024.1
03:00 - 03:30 2.2 2.4 2.0 100 0.0 3.2 297 5.4 1023.9
03:30 - 04:00 2.2 2.4 2.0 100 0.0 1.4 315 4.3 1023.8
04:00 - 04:30 2.2 2.6 1.9 100 0.0 2.5 336 7.6 1023.6
04:30 - 05:00 2.1 2.3 2.0 100 0.0 2.5 307 5.0 1023.5
05:00 - 05:30 2.2 2.4 1.9 100 0.0 2.9 292 4.7 1023.2
05:30 - 06:00 2.4 3.0 2.2 96 0.0 3.6 270 6.1 1022.9
06:00 - 06:30 1.7 2.3 1.4 93 0.0 0.7 206 2.9 1023.4
06:30 - 07:00 1.6 1.8 1.3 92 0.0 1.1 338 4.7 1023.7
07:00 - 07:30 1.6 2.0 1.3 93 0.0 1.8 328 4.7 1024.1
07:30 - 08:00 1.8 2.2 1.5 92 0.0 2.2 296 5.8 1024.1
08:00 - 08:30 3.3 4.1 1.9 87 0.0 2.5 256 5.0 1023.7
08:30 - 09:00 4.5 5.0 3.7 79 0.0 3.2 231 8.3 1023.3
09:00 - 09:30 5.2 5.6 4.7 78 0.0 5.4 226 9.7 1023.0
09:30 - 10:00 5.7 5.8 5.6 78 0.0 5.4 231 9.0 1022.8
10:00 - 10:30 6.1 6.5 5.8 77 0.0 3.6 222 9.0 1022.7
10:30 - 11:00 6.8 7.0 6.6 71 0.0 6.5 217 14.0 1022.4
11:00 - 11:30 7.2 7.6 6.9 72 0.0 6.5 249 14.4 1022.1
11:30 - 12:00 7.7 7.9 7.5 71 0.0 6.8 223 14.4 1021.6
12:00 - 12:30 8.4 8.8 8.0 68 0.0 5.4 226 12.6 1020.8
12:30 - 13:00 9.2 9.6 8.9 66 0.0 5.4 195 14.4 1020.2
13:00 - 13:30 9.8 10.8 9.3 67 0.0 5.4 201 12.6 1019.6
13:30 - 14:00 10.5 11.1 10.0 64 0.0 6.8 209 16.6 1019.3
14:00 - 14:30 10.0 10.5 9.6 66 0.0 5.0 208 14.0 1019.4
14:30 - 15:00 9.7 10.2 9.2 69 0.0 4.3 200 13.7 1019.4
15:00 - 15:30 9.6 9.9 9.4 69 0.0 6.5 212 17.3 1019.5
15:30 - 16:00 9.5 9.9 8.6 68 0.0 5.8 213 12.6 1019.4
16:00 - 16:30 7.9 8.6 7.1 76 0.0 2.2 207 9.7 1020.0
16:30 - 17:00 6.0 7.0 5.3 85 0.0 0.4 309 3.6 1020.8
17:00 - 17:30 4.8 5.2 4.5 91 0.0 0.7 360 3.6 1021.4
17:30 - 18:00 4.4 4.7 3.9 92 0.0 2.2 311 6.1 1021.9
18:00 - 18:30 4.0 4.2 3.9 92 0.0 2.2 322 5.8 1022.3
18:30 - 19:00 3.9 4.3 3.5 91 0.0 1.8 2 6.8 1022.6
19:00 - 19:30 3.6 3.8 3.4 92 0.0 2.9 346 6.8 1023.0
19:30 - 20:00 3.7 3.9 3.4 92 0.0 2.5 351 5.4 1023.2
20:00 - 20:30 3.5 3.7 3.4 93 0.0 2.2 357 5.4 1023.5
20:30 - 21:00 3.4 3.8 3.1 94 0.0 3.6 11 6.5 1023.7
21:00 - 21:30 4.0 4.2 3.7 93 0.0 3.2 8 6.8 1023.3
21:30 - 22:00 3.7 4.1 3.6 93 0.0 2.5 348 6.1 1023.5
22:00 - 22:30 3.6 3.7 3.4 93 0.0 1.8 357 4.7 1023.6
22:30 - 23:00 3.4 3.8 2.9 94 0.0 2.9 1 6.8 1023.4
23:00 - 23:30 3.8 4.1 3.6 92 0.0 3.6 3 6.8 1023.2

Les dades en taronja només han passat un control de qualitat automàtic. Resta pendent la seva validació definitiva.